Time;durP1;ratioP1;P1;durP2;ratioP2;P2;SDS_P1;SDS_P2;PMS_P1;PMS_P2;Temp;Humidity;BMP_temperature;BMP_pressure;BME280_temperature;BME280_humidity;BME280_pressure;Samples;Min_cycle;Max_cycle;Signal;HPM_P1;HPM_P2
2023/04/24 00:01:15;;;;;;;36.65;19.92;;;;;;;5.88;64.85;100738.14;1738372;80;21227;-60
2023/04/24 00:04:20;;;;;;;37.03;19.57;;;;;;;5.84;64.83;100741.28;1727873;82;21176;-59
2023/04/24 00:07:26;;;;;;;31.20;18.67;;;;;;;5.80;64.94;100735.73;1737230;82;21204;-59
2023/04/24 00:10:32;;;;;;;31.85;19.20;;;;;;;5.77;65.05;100735.49;1742488;82;21192;-59
2023/04/24 00:13:38;;;;;;;31.93;17.17;;;;;;;5.76;65.17;100731.07;1737132;82;21176;-60
2023/04/24 00:16:45;;;;;;;34.25;16.73;;;;;;;5.75;65.25;100736.16;1737057;82;21212;-60
2023/04/24 00:19:51;;;;;;;28.85;16.20;;;;;;;5.77;65.41;100741.45;1742535;82;21323;-60
2023/04/24 00:22:56;;;;;;;33.70;15.38;;;;;;;5.81;65.62;100735.59;1744098;81;21242;-59
2023/04/24 00:26:02;;;;;;;28.67;15.38;;;;;;;5.85;65.72;100746.57;1753483;81;21231;-59
2023/04/24 00:29:08;;;;;;;28.15;15.18;;;;;;;5.92;65.83;100746.89;1745551;81;21419;-59
2023/04/24 00:32:15;;;;;;;26.20;14.73;;;;;;;5.95;65.78;100742.53;1753715;81;21388;-60
2023/04/24 00:35:21;;;;;;;25.02;15.28;;;;;;;5.98;65.74;100741.77;1754172;81;21259;-60
2023/04/24 00:38:26;;;;;;;26.60;13.88;;;;;;;6.02;65.78;100743.72;1772783;80;21193;-59
2023/04/24 00:41:32;;;;;;;18.70;12.68;;;;;;;6.08;65.93;100736.36;1769013;80;21363;-59
2023/04/24 00:44:38;;;;;;;18.55;11.22;;;;;;;6.17;66.15;100739.59;1777450;80;21351;-59
2023/04/24 00:47:44;;;;;;;16.80;11.10;;;;;;;6.27;66.38;100744.56;1777216;80;21331;-59
2023/04/24 00:50:53;;;;;;;16.12;10.63;;;;;;;6.36;66.48;100742.88;1768774;80;21278;-59
2023/04/24 00:53:59;;;;;;;16.02;10.80;;;;;;;6.42;66.55;100739.10;1768795;81;21225;-59
2023/04/24 00:57:05;;;;;;;16.73;10.32;;;;;;;6.50;66.66;100737.86;1768973;80;21281;-58
2023/04/24 01:00:15;;;;;;;15.40;10.00;;;;;;;6.58;66.73;100739.38;1768937;80;21336;-58
2023/04/24 01:03:21;;;;;;;14.23;9.80;;;;;;;6.63;66.75;100736.27;1755028;80;21390;-58
2023/04/24 01:06:28;;;;;;;16.67;10.50;;;;;;;6.67;66.76;100737.68;1777385;80;21805;-58
2023/04/24 01:09:33;;;;;;;15.95;9.68;;;;;;;6.68;66.77;100733.45;1768810;80;21293;-58
2023/04/24 01:12:40;;;;;;;16.87;9.50;;;;;;;6.71;66.84;100726.86;1792868;79;21273;-58
2023/04/24 01:15:47;;;;;;;17.15;9.40;;;;;;;6.70;66.84;100721.94;1777189;80;21213;-59
2023/04/24 01:18:52;;;;;;;11.43;9.18;;;;;;;6.69;66.91;100725.64;1777264;80;21224;-59
2023/04/24 01:22:02;;;;;;;14.13;9.25;;;;;;;6.67;66.92;100731.75;1768584;80;21360;-58
2023/04/24 01:25:08;;;;;;;15.40;9.48;;;;;;;6.64;66.89;100727.95;1777348;79;21201;-58
2023/04/24 01:28:15;;;;;;;13.05;9.83;;;;;;;6.58;66.83;100726.30;1759643;81;21216;-58
2023/04/24 01:31:21;;;;;;;13.00;9.25;;;;;;;6.52;66.90;100729.08;1710778;82;21201;-58
2023/04/24 01:34:27;;;;;;;14.55;9.73;;;;;;;6.47;66.96;100723.19;1763023;80;21730;-58
2023/04/24 01:37:33;;;;;;;13.53;9.38;;;;;;;6.41;66.95;100726.48;1768803;81;21194;-59
2023/04/24 01:40:40;;;;;;;14.60;9.60;;;;;;;6.37;66.95;100726.91;1774618;80;21191;-58
2023/04/24 01:43:45;;;;;;;15.55;9.75;;;;;;;6.30;66.91;100725.25;1771932;80;21455;-58
2023/04/24 01:46:52;;;;;;;17.27;10.70;;;;;;;6.23;66.85;100715.09;1768181;80;21220;-58
2023/04/24 01:50:00;;;;;;;14.85;10.00;;;;;;;6.17;66.87;100723.28;1768983;81;21209;-59
2023/04/24 01:53:06;;;;;;;22.95;11.18;;;;;;;6.11;66.89;100714.34;1769056;80;21200;-58
2023/04/24 01:56:12;;;;;;;14.95;9.73;;;;;;;6.00;66.81;100713.09;1768081;81;21350;-58
2023/04/24 01:59:19;;;;;;;14.55;10.53;;;;;;;5.94;66.92;100715.02;1770660;80;21405;-58
2023/04/24 02:02:27;;;;;;;15.78;10.75;;;;;;;5.91;67.16;100709.86;1769057;81;21947;-58
2023/04/24 02:05:34;;;;;;;19.90;11.63;;;;;;;5.89;67.24;100711.36;1769160;81;21204;-59
2023/04/24 02:08:40;;;;;;;14.98;10.55;;;;;;;5.84;67.22;100714.11;1769060;81;21186;-60
2023/04/24 02:11:51;;;;;;;18.90;10.67;;;;;;;5.80;67.28;100708.58;1769389;81;21236;-59
2023/04/24 02:14:59;;;;;;;21.82;11.85;;;;;;;5.78;67.41;100712.79;1769093;81;21196;-59
2023/04/24 02:18:06;;;;;;;22.40;12.03;;;;;;;5.75;67.50;100713.06;1769222;81;21220;-59
2023/04/24 02:21:13;;;;;;;24.82;14.20;;;;;;;5.71;67.42;100707.53;1769116;81;21193;-60
2023/04/24 02:24:20;;;;;;;19.07;11.60;;;;;;;5.66;67.35;100705.72;1769121;81;21367;-58
2023/04/24 02:27:26;;;;;;;18.85;10.72;;;;;;;5.66;67.47;100707.59;1749820;81;21256;-59
2023/04/24 02:30:31;;;;;;;21.35;10.30;;;;;;;5.69;67.65;100704.61;1769040;80;21220;-59
2023/04/24 02:33:36;;;;;;;14.73;9.43;;;;;;;5.69;67.68;100707.31;1769133;81;21264;-60
2023/04/24 02:36:42;;;;;;;20.97;10.53;;;;;;;5.68;67.67;100704.22;1769119;81;21317;-57
2023/04/24 02:39:47;;;;;;;18.35;10.58;;;;;;;5.69;67.77;100701.89;1761308;80;21275;-58
2023/04/24 02:42:54;;;;;;;19.37;10.63;;;;;;;5.75;67.86;100699.97;1748345;81;21255;-59
2023/04/24 02:46:02;;;;;;;17.85;10.13;;;;;;;5.82;67.93;100707.45;1743621;81;21334;-58
2023/04/24 02:49:09;;;;;;;21.35;9.93;;;;;;;5.93;68.15;100714.67;1734787;82;21236;-59
2023/04/24 02:52:14;;;;;;;17.42;10.40;;;;;;;6.02;68.27;100704.31;1735431;81;21192;-59
2023/04/24 02:55:20;;;;;;;19.35;11.00;;;;;;;6.07;68.25;100715.11;1734809;81;21344;-58
2023/04/24 02:58:26;;;;;;;14.15;10.43;;;;;;;6.15;68.41;100713.56;1736597;81;21195;-58
2023/04/24 03:01:31;;;;;;;17.30;10.45;;;;;;;6.24;68.62;100717.66;1752873;81;21195;-59
2023/04/24 03:04:39;;;;;;;13.55;10.63;;;;;;;6.35;68.73;100723.47;1750327;80;21207;-59
2023/04/24 03:07:47;;;;;;;15.58;9.53;;;;;;;6.45;68.81;100725.22;1747860;82;21334;-58
2023/04/24 03:10:53;;;;;;;12.88;9.10;;;;;;;6.53;68.86;100724.02;1735641;81;21239;-59
2023/04/24 03:13:59;;;;;;;13.03;9.35;;;;;;;6.63;68.92;100727.58;1742269;82;21393;-59
2023/04/24 03:17:05;;;;;;;12.65;9.18;;;;;;;6.73;68.94;100733.02;1736987;82;21248;-59
2023/04/24 03:20:12;;;;;;;19.45;9.40;;;;;;;6.78;68.91;100734.82;1739797;82;21244;-59
2023/04/24 03:23:19;;;;;;;13.40;8.75;;;;;;;6.84;68.96;100731.03;1734889;81;21311;-58
2023/04/24 03:26:25;;;;;;;16.85;10.35;;;;;;;6.91;68.98;100738.95;1738149;80;21184;-58
2023/04/24 03:29:40;;;;;;;15.38;9.25;;;;;;;6.95;68.89;100743.62;1735018;81;21322;-58
2023/04/24 03:32:50;;;;;;;21.25;9.98;;;;;;;6.97;68.83;100742.48;1734639;82;21228;-60
2023/04/24 03:35:58;;;;;;;13.13;9.50;;;;;;;7.04;68.89;100740.05;1735205;82;21341;-60
2023/04/24 03:39:05;;;;;;;22.02;10.45;;;;;;;7.09;68.91;100737.73;1709030;84;21213;-58
2023/04/24 03:42:17;;;;;;;16.35;9.68;;;;;;;7.13;68.85;100745.48;1730527;81;21243;-58
2023/04/24 03:45:24;;;;;;;15.28;10.28;;;;;;;7.20;68.91;100743.02;1745044;81;21373;-58
2023/04/24 03:48:32;;;;;;;15.20;10.08;;;;;;;7.29;68.95;100742.16;1733754;81;21270;-58
2023/04/24 03:51:42;;;;;;;16.93;12.50;;;;;;;7.39;69.06;100747.06;1745210;82;21396;-59
2023/04/24 03:54:50;;;;;;;20.97;15.68;;;;;;;7.53;69.26;100740.65;1736863;81;21204;-59
2023/04/24 03:57:57;;;;;;;26.50;19.50;;;;;;;7.63;69.17;100741.98;1745024;81;21223;-59
2023/04/24 04:01:03;;;;;;;27.48;19.37;;;;;;;7.72;69.17;100748.42;1736836;82;21196;-60
2023/04/24 04:04:17;;;;;;;27.30;20.43;;;;;;;7.80;69.19;100745.81;1736837;81;21176;-58
2023/04/24 04:07:25;;;;;;;27.58;20.82;;;;;;;7.89;69.20;100743.05;1742942;81;21204;-58
2023/04/24 04:10:30;;;;;;;24.77;18.52;;;;;;;8.00;69.26;100745.58;1737325;81;21196;-59
2023/04/24 04:13:37;;;;;;;26.70;20.00;;;;;;;8.12;69.33;100735.34;1736999;81;21255;-59
2023/04/24 04:16:45;;;;;;;24.37;15.98;;;;;;;8.27;69.37;100744.25;1744986;81;21306;-59
2023/04/24 04:19:53;;;;;;;22.17;14.07;;;;;;;8.39;69.33;100743.52;1742668;81;21196;-59
2023/04/24 04:22:59;;;;;;;19.82;13.38;;;;;;;8.49;69.24;100744.31;1745022;81;21199;-59
2023/04/24 04:26:07;;;;;;;21.02;13.65;;;;;;;8.57;69.23;100749.37;1736902;82;21156;-59
2023/04/24 04:29:22;;;;;;;18.12;12.20;;;;;;;8.69;69.35;100746.76;1737104;81;21887;-59
2023/04/24 04:32:28;;;;;;;22.80;12.35;;;;;;;8.85;69.42;100748.78;1744475;81;21185;-60
2023/04/24 04:35:34;;;;;;;16.57;11.10;;;;;;;8.98;69.43;100754.72;1734807;81;21259;-60
2023/04/24 04:38:42;;;;;;;16.87;10.60;;;;;;;9.10;69.41;100754.84;1750051;80;21192;-59
2023/04/24 04:41:52;;;;;;;22.25;11.15;;;;;;;9.12;69.12;100745.13;1767981;79;21221;-59
2023/04/24 04:44:59;;;;;;;17.85;10.03;;;;;;;9.19;69.24;100742.97;1763340;80;21353;-59
2023/04/24 04:48:08;;;;;;;22.93;10.32;;;;;;;9.29;69.22;100737.41;1744181;81;21274;-59
2023/04/24 04:51:13;;;;;;;19.60;9.45;;;;;;;9.33;69.21;100741.02;1744527;81;21243;-59
2023/04/24 04:54:20;;;;;;;33.25;17.48;;;;;;;9.43;69.29;100744.53;1759124;79;21235;-58
2023/04/24 04:57:26;;;;;;;16.75;10.28;;;;;;;9.55;69.38;100747.33;1741704;82;21816;-58
2023/04/24 05:00:37;;;;;;;16.23;11.28;;;;;;;9.68;69.41;100733.23;1749378;80;21325;-57
2023/04/24 05:03:44;;;;;;;25.20;12.05;;;;;;;9.77;69.34;100733.62;1717892;80;22008;-60
2023/04/24 05:06:51;;;;;;;24.63;10.60;;;;;;;9.88;69.37;100738.31;1761417;79;21251;-62
2023/04/24 05:09:57;;;;;;;18.30;10.13;;;;;;;10.04;69.42;100740.27;1746782;81;21545;-61
2023/04/24 05:13:03;;;;;;;21.27;10.53;;;;;;;10.15;69.40;100738.13;1742858;82;21259;-62
2023/04/24 05:16:10;;;;;;;17.80;9.90;;;;;;;10.30;69.51;100731.03;1743098;82;21196;-62
2023/04/24 05:19:18;;;;;;;17.27;9.20;;;;;;;10.45;69.54;100729.85;1743463;79;21207;-62
2023/04/24 05:22:23;;;;;;;22.60;9.50;;;;;;;10.62;69.50;100730.77;1736063;80;21223;-63
2023/04/24 05:25:32;;;;;;;27.82;9.23;;;;;;;10.78;69.56;100729.44;1743137;82;21199;-61
2023/04/24 05:28:38;;;;;;;20.97;9.68;;;;;;;10.92;69.44;100730.13;1746152;80;21753;-63
2023/04/24 05:31:45;;;;;;;13.05;8.70;;;;;;;11.09;69.52;100724.50;1748093;80;21275;-62
2023/04/24 05:34:53;;;;;;;19.30;10.13;;;;;;;11.26;69.43;100717.11;1722860;80;21219;-62
2023/04/24 05:38:01;;;;;;;14.68;9.38;;;;;;;11.38;69.31;100721.23;1745217;80;21404;-63
2023/04/24 05:41:08;;;;;;;17.55;9.70;;;;;;;11.55;69.38;100713.33;1741026;82;21598;-63
2023/04/24 05:44:13;;;;;;;10.48;7.83;;;;;;;11.72;69.38;100708.17;1740278;81;21227;-63
2023/04/24 05:47:19;;;;;;;15.55;9.28;;;;;;;11.89;69.39;100707.95;1675305;85;21312;-58
2023/04/24 05:50:24;;;;;;;17.92;9.05;;;;;;;12.06;69.33;100707.39;1689824;84;21590;-58
2023/04/24 05:53:33;;;;;;;15.08;8.73;;;;;;;12.21;69.26;100706.97;1699906;84;21216;-59
2023/04/24 05:56:40;;;;;;;15.53;8.95;;;;;;;12.40;69.34;100706.53;1678695;85;21236;-59
2023/04/24 05:59:47;;;;;;;14.00;8.53;;;;;;;12.59;69.34;100704.70;1655310;85;21223;-59
2023/04/24 06:02:55;;;;;;;31.20;23.70;;;;;;;12.79;69.35;100712.84;1668071;85;21217;-59
2023/04/24 06:06:02;;;;;;;20.57;9.93;;;;;;;12.97;69.37;100716.67;1681545;84;21224;-58
2023/04/24 06:09:08;;;;;;;11.75;7.90;;;;;;;13.15;69.41;100709.84;1698119;84;21373;-56
2023/04/24 06:12:15;;;;;;;13.68;8.20;;;;;;;13.28;69.28;100708.70;1701026;83;21227;-55
2023/04/24 06:15:23;;;;;;;17.17;7.70;;;;;;;13.35;69.11;100711.03;1672383;86;21758;-56
2023/04/24 06:18:32;;;;;;;13.62;7.55;;;;;;;13.44;69.05;100707.19;1637589;86;21299;-56
2023/04/24 06:21:39;;;;;;;16.32;7.97;;;;;;;13.50;68.88;100705.57;1687258;82;21900;-55
2023/04/24 06:24:48;;;;;;;18.35;9.35;;;;;;;13.58;68.96;100700.50;1712906;84;21204;-55
2023/04/24 06:27:54;;;;;;;20.68;9.35;;;;;;;13.70;68.94;100708.65;1712823;84;21231;-56
2023/04/24 06:31:04;;;;;;;16.05;8.25;;;;;;;13.81;68.90;100702.68;1718173;83;21403;-56
2023/04/24 06:34:10;;;;;;;19.60;8.58;;;;;;;13.95;68.92;100703.20;1723889;83;21253;-56
2023/04/24 06:37:16;;;;;;;18.85;8.98;;;;;;;14.07;68.80;100712.68;1685495;83;21820;-55
2023/04/24 06:40:21;;;;;;;17.73;10.25;;;;;;;14.18;68.76;100702.56;1732755;82;21673;-55
2023/04/24 06:43:27;;;;;;;20.95;9.50;;;;;;;14.29;68.84;100698.84;1734743;82;21227;-56
2023/04/24 06:46:32;;;;;;;11.45;6.87;;;;;;;14.43;68.83;100710.35;1696553;82;21830;-54
2023/04/24 06:49:40;;;;;;;15.70;7.03;;;;;;;14.60;68.96;100704.94;1701338;82;21204;-56
2023/04/24 06:52:49;;;;;;;14.50;8.10;;;;;;;14.72;68.73;100705.30;1714283;81;21228;-57
2023/04/24 06:55:56;;;;;;;15.83;8.38;;;;;;;14.85;68.78;100706.31;1765959;80;21236;-56
2023/04/24 06:59:02;;;;;;;21.82;14.00;;;;;;;15.05;68.78;100707.05;1720616;82;21321;-55
2023/04/24 07:02:10;;;;;;;17.67;13.40;;;;;;;15.23;68.79;100707.42;1729131;81;21404;-57
2023/04/24 07:05:19;;;;;;;17.10;9.40;;;;;;;15.42;68.88;100710.41;1747825;82;21602;-55
2023/04/24 07:08:25;;;;;;;12.58;6.60;;;;;;;15.55;68.67;100711.91;1730528;82;21581;-56
2023/04/24 07:11:32;;;;;;;10.28;5.60;;;;;;;15.76;68.74;100710.45;1729976;83;21269;-54
2023/04/24 07:14:40;;;;;;;10.15;7.28;;;;;;;15.95;68.68;100704.22;1732995;80;21759;-55
2023/04/24 07:17:45;;;;;;;9.78;5.97;;;;;;;16.23;68.75;100703.66;1715126;83;21226;-55
2023/04/24 07:20:52;;;;;;;10.50;6.30;;;;;;;16.50;68.60;100699.13;1729075;83;21245;-56
2023/04/24 07:24:05;;;;;;;9.95;5.80;;;;;;;16.74;68.29;100697.73;1696853;83;21199;-56
2023/04/24 07:27:14;;;;;;;9.78;4.47;;;;;;;16.95;68.17;100691.50;1682524;85;21275;-56
2023/04/24 07:30:24;;;;;;;14.20;4.78;;;;;;;17.16;68.01;100691.33;1682465;84;21224;-56
2023/04/24 07:33:29;;;;;;;17.90;4.40;;;;;;;17.33;67.70;100682.10;1692497;82;21220;-56
2023/04/24 07:36:34;;;;;;;11.33;5.67;;;;;;;17.40;67.36;100682.94;1665639;84;21216;-56
2023/04/24 07:39:42;;;;;;;13.08;4.50;;;;;;;17.51;67.38;100682.33;1720720;83;21205;-55
2023/04/24 07:42:51;;;;;;;11.50;4.58;;;;;;;17.63;67.26;100673.72;1728899;80;21753;-56
2023/04/24 07:46:01;;;;;;;8.35;4.60;;;;;;;17.71;67.18;100672.94;1685636;83;21576;-56
2023/04/24 07:49:07;;;;;;;12.15;6.65;;;;;;;17.73;66.80;100674.11;1701975;82;21789;-55
2023/04/24 07:52:15;;;;;;;9.38;5.30;;;;;;;17.76;66.58;100669.00;1684975;83;21226;-56
2023/04/24 07:55:20;;;;;;;11.18;4.65;;;;;;;17.76;66.54;100662.59;1723077;82;21197;-55
2023/04/24 07:58:26;;;;;;;9.75;5.10;;;;;;;17.81;66.44;100669.73;1689951;85;21879;-55
2023/04/24 08:01:31;;;;;;;9.15;4.97;;;;;;;17.78;66.25;100666.88;1698107;84;21204;-56
2023/04/24 08:04:38;;;;;;;13.22;5.03;;;;;;;17.78;66.25;100664.63;1709779;82;21762;-57
2023/04/24 08:07:46;;;;;;;11.88;4.78;;;;;;;17.80;66.32;100663.89;1703184;83;21734;-56
2023/04/24 08:10:52;;;;;;;8.00;4.65;;;;;;;17.85;66.45;100662.16;1680760;84;21286;-56
2023/04/24 08:13:59;;;;;;;9.70;4.25;;;;;;;17.92;66.37;100663.53;1659369;85;21380;-56
2023/04/24 08:17:05;;;;;;;7.72;3.58;;;;;;;17.95;66.22;100655.34;1683612;85;21457;-57
2023/04/24 08:20:15;;;;;;;9.28;4.20;;;;;;;17.96;66.11;100649.58;1690813;82;21259;-57
2023/04/24 08:23:21;;;;;;;8.75;4.33;;;;;;;17.99;65.97;100649.14;1690091;82;21279;-56
2023/04/24 08:26:28;;;;;;;8.85;4.60;;;;;;;17.99;65.82;100649.67;1697255;82;21261;-56
2023/04/24 08:29:35;;;;;;;9.85;5.20;;;;;;;17.99;65.66;100650.53;1709418;82;21220;-56
2023/04/24 08:32:41;;;;;;;12.50;4.90;;;;;;;18.01;65.68;100649.78;1696251;84;21250;-56
2023/04/24 08:35:47;;;;;;;8.18;3.92;;;;;;;18.04;65.65;100643.80;1702199;83;21222;-59
2023/04/24 08:38:47;;;;;;;9.70;4.70;;;;;;;18.14;65.59;100641.97;1696312;84;21226;-58
2023/04/24 08:41:53;;;;;;;8.68;4.42;;;;;;;18.27;65.41;100641.36;1682882;83;21717;-58
2023/04/24 08:44:58;;;;;;;7.00;4.33;;;;;;;18.34;65.24;100639.44;1711691;82;21219;-57
2023/04/24 08:48:05;;;;;;;11.25;4.50;;;;;;;18.45;65.03;100637.38;1728339;80;21212;-59
2023/04/24 08:51:16;;;;;;;8.45;4.08;;;;;;;18.54;64.68;100628.26;1720108;82;21210;-59
2023/04/24 08:54:34;;;;;;;8.73;4.08;;;;;;;18.62;64.57;100627.48;1732089;82;21253;-58
2023/04/24 08:57:35;;;;;;;7.67;3.90;;;;;;;18.71;64.37;100617.81;1726620;82;21245;-59
2023/04/24 09:00:46;;;;;;;19.25;4.30;;;;;;;18.80;64.25;100623.43;1771089;81;21167;-58
2023/04/24 09:03:50;;;;;;;8.35;3.77;;;;;;;18.99;64.35;100620.20;1748503;80;21742;-58
2023/04/24 09:06:58;;;;;;;10.08;4.08;;;;;;;19.22;64.30;100612.96;1709681;82;21252;-63
2023/04/24 09:10:04;;;;;;;7.70;3.60;;;;;;;19.44;63.99;100616.20;1718518;82;21251;-63
2023/04/24 09:13:11;;;;;;;11.50;4.15;;;;;;;19.70;63.79;100605.39;1736772;81;21247;-65
2023/04/24 09:16:18;;;;;;;10.78;3.67;;;;;;;19.90;63.49;100604.66;1742155;82;21228;-65
2023/04/24 09:19:25;;;;;;;8.88;3.25;;;;;;;20.00;63.02;100593.83;1727995;80;21733;-64
2023/04/24 09:22:31;;;;;;;6.12;3.25;;;;;;;20.10;62.68;100593.61;1762554;80;21224;-63
2023/04/24 09:25:41;;;;;;;6.58;3.27;;;;;;;20.35;62.42;100593.53;1733058;82;21208;-64
2023/04/24 09:28:49;;;;;;;6.97;3.35;;;;;;;20.51;61.82;100591.49;1716544;82;21194;-64
2023/04/24 09:31:54;;;;;;;10.00;3.05;;;;;;;20.54;61.44;100591.02;1735564;82;21615;-64
2023/04/24 09:35:23;;;;;;;9.93;3.20;;;;;;;20.49;61.06;100597.30;1742208;82;21182;-63
2023/04/24 09:38:46;;;;;;;9.70;3.75;;;;;;;20.45;60.91;100591.05;1741602;81;21209;-63
2023/04/24 09:42:01;;;;;;;8.28;2.80;;;;;;;20.41;60.71;100585.63;1726267;81;21732;-64
2023/04/24 09:45:43;;;;;;;5.53;2.85;;;;;;;20.45;60.52;100582.70;1732837;82;21426;-62
2023/04/24 09:48:51;;;;;;;12.47;3.17;;;;;;;20.46;60.10;100578.30;1622621;88;21263;-60
2023/04/24 09:51:58;;;;;;;7.65;2.77;;;;;;;20.39;59.74;100574.73;1623728;88;21304;-60
2023/04/24 09:55:05;;;;;;;8.45;3.12;;;;;;;20.35;59.51;100574.92;1623464;88;21287;-59
2023/04/24 09:58:12;;;;;;;7.28;2.60;;;;;;;20.38;59.26;100576.37;1591261;88;21329;-59
2023/04/24 10:01:18;;;;;;;8.45;3.37;;;;;;;20.42;59.15;100563.70;1610566;88;21228;-61
2023/04/24 10:04:29;;;;;;;7.97;3.33;;;;;;;20.49;59.05;100564.45;1609663;87;21227;-62
2023/04/24 10:07:36;;;;;;;;;;;;;;;20.59;58.88;100560.56;1620728;87;21296;-61
2023/04/24 10:10:44;;;;;;;11.08;2.98;;;;;;;20.62;58.59;100556.77;1597111;89;20231;-61
2023/04/24 10:13:53;;;;;;;11.18;2.80;;;;;;;20.63;58.43;100554.81;1599510;89;21301;-60
2023/04/24 10:17:01;;;;;;;14.18;3.10;;;;;;;20.61;58.07;100542.53;1626781;86;21614;-61
2023/04/24 10:20:08;;;;;;;12.25;4.80;;;;;;;20.57;57.71;100545.50;1621588;88;21294;-59
2023/04/24 10:23:19;;;;;;;13.70;3.00;;;;;;;20.66;57.60;100548.80;1603826;87;21316;-57
2023/04/24 10:26:25;;;;;;;7.12;2.40;;;;;;;20.92;57.64;100531.67;1622979;88;21224;-56
2023/04/24 10:29:34;;;;;;;7.35;2.65;;;;;;;21.26;57.54;100539.80;1622443;88;21609;-58
2023/04/24 10:32:41;;;;;;;10.20;2.83;;;;;;;21.64;57.47;100535.98;1621565;88;21260;-57
2023/04/24 10:35:51;;;;;;;12.43;3.10;;;;;;;21.97;57.21;100535.66;1618110;87;21231;-59
2023/04/24 10:38:56;;;;;;;7.65;2.47;;;;;;;22.11;56.63;100527.84;1607558;88;21595;-58
2023/04/24 10:42:02;;;;;;;13.35;3.00;;;;;;;22.20;56.12;100524.41;1633787;86;21859;-57
2023/04/24 10:45:13;;;;;;;14.93;2.70;;;;;;;22.08;55.39;100526.94;1634267;86;21432;-58
2023/04/24 10:48:22;;;;;;;;;;;;;;;21.87;54.93;100525.66;1604783;88;21255;-58
2023/04/24 10:51:30;;;;;;;10.98;2.60;;;;;;;21.56;54.62;100521.02;1566814;89;20549;-57
2023/04/24 10:54:57;;;;;;;9.28;2.22;;;;;;;21.41;54.75;100522.05;1630873;86;21273;-58
2023/04/24 10:58:11;;;;;;;10.20;2.25;;;;;;;21.40;54.61;100519.83;1597557;86;21212;-57
2023/04/24 11:01:18;;;;;;;12.93;2.60;;;;;;;21.45;54.36;100515.77;1597970;89;21249;-56
2023/04/24 11:04:38;;;;;;;9.83;2.37;;;;;;;21.44;53.92;100511.27;1602341;87;21243;-57
2023/04/24 11:08:21;;;;;;;10.28;2.50;;;;;;;21.24;53.64;100508.02;1580241;89;21308;-59
2023/04/24 11:11:28;;;;;;;11.45;2.20;;;;;;;21.25;53.71;100506.91;1581937;87;21328;-58
2023/04/24 11:14:33;;;;;;;7.08;2.25;;;;;;;21.37;53.62;100506.92;1626378;86;21819;-58
2023/04/24 11:17:45;;;;;;;8.75;2.25;;;;;;;21.43;53.30;100497.05;1621051;86;21832;-58
2023/04/24 11:20:51;;;;;;;12.23;2.70;;;;;;;21.48;52.98;100494.39;1635484;86;21259;-58
2023/04/24 11:23:59;;;;;;;6.85;2.27;;;;;;;21.45;52.51;100489.30;1628799;86;21279;-58
2023/04/24 11:27:19;;;;;;;10.90;2.30;;;;;;;21.39;52.02;100500.58;1604935;87;21259;-58
2023/04/24 11:30:22;;;;;;;10.15;2.52;;;;;;;21.21;51.74;100490.94;1618494;86;21804;-59
2023/04/24 11:33:28;;;;;;;5.58;2.30;;;;;;;21.01;51.52;100490.45;1601371;89;21279;-59
2023/04/24 11:36:34;;;;;;;13.70;2.40;;;;;;;20.85;51.38;100488.34;1607608;89;21238;-60
2023/04/24 11:39:44;;;;;;;11.15;3.20;;;;;;;20.75;51.41;100488.41;1608970;87;21596;-58
2023/04/24 11:42:59;;;;;;;10.68;2.42;;;;;;;20.70;51.31;100481.84;1604527;87;21807;-59
2023/04/24 11:46:07;;;;;;;13.18;3.17;;;;;;;20.58;51.28;100475.42;1608002;88;21289;-61
2023/04/24 11:49:12;;;;;;;24.45;3.77;;;;;;;20.49;51.28;100483.25;1613475;86;21235;-59
2023/04/24 11:52:17;;;;;;;9.33;2.80;;;;;;;20.42;51.13;100485.84;1615274;86;21801;-58
2023/04/24 11:55:29;;;;;;;10.80;2.60;;;;;;;20.31;51.02;100477.73;1585416;86;21247;-58
2023/04/24 11:58:34;;;;;;;10.05;2.67;;;;;;;20.26;50.86;100480.41;1611635;86;21249;-58
2023/04/24 12:01:50;;;;;;;14.00;2.80;;;;;;;20.15;50.64;100485.91;1609083;88;21276;-58
2023/04/24 12:04:56;;;;;;;5.35;2.37;;;;;;;20.06;50.50;100478.96;1598315;88;21255;-59
2023/04/24 12:08:05;;;;;;;8.13;2.25;;;;;;;19.98;50.40;100473.73;1610756;87;21347;-59
2023/04/24 12:11:12;;;;;;;5.78;2.17;;;;;;;19.97;50.40;100470.09;1621098;86;21827;-59
2023/04/24 12:14:20;;;;;;;11.95;2.60;;;;;;;19.98;50.33;100473.16;1613912;88;21286;-59
2023/04/24 12:17:34;;;;;;;5.78;2.33;;;;;;;19.96;50.09;100473.96;1607055;87;21881;-58
2023/04/24 12:20:40;;;;;;;5.35;2.08;;;;;;;19.95;50.00;100470.00;1607613;88;21295;-60
2023/04/24 12:23:47;;;;;;;7.40;2.10;;;;;;;19.98;49.89;100464.00;1628532;86;21352;-59
2023/04/24 12:26:53;;;;;;;9.20;2.40;;;;;;;19.98;49.77;100459.83;1586554;88;21283;-60
2023/04/24 12:30:06;;;;;;;8.73;2.80;;;;;;;20.05;49.75;100463.34;1597848;88;21248;-58
2023/04/24 12:33:19;;;;;;;5.72;3.25;;;;;;;20.21;49.73;100462.72;1617204;87;21327;-58
2023/04/24 12:36:28;;;;;;;7.65;3.30;;;;;;;20.38;49.67;100475.72;1610433;87;21287;-58
2023/04/24 12:39:34;;;;;;;9.23;3.20;;;;;;;20.47;49.50;100469.29;1607630;86;21811;-58
2023/04/24 12:42:40;;;;;;;7.50;3.30;;;;;;;20.47;49.43;100471.50;1606524;87;22146;-58
2023/04/24 12:45:46;;;;;;;10.20;2.95;;;;;;;20.43;49.26;100473.08;1596606;88;21268;-58
2023/04/24 12:48:54;;;;;;;8.70;3.20;;;;;;;20.29;49.10;100471.59;1605697;87;21653;-58
2023/04/24 12:51:59;;;;;;;8.20;3.27;;;;;;;20.12;48.94;100466.89;1596933;88;21272;-57
2023/04/24 12:55:10;;;;;;;13.88;3.65;;;;;;;19.96;49.00;100462.84;1604752;87;21264;-57
2023/04/24 12:58:15;;;;;;;17.10;4.42;;;;;;;19.96;49.14;100465.62;1569086;89;21591;-58
2023/04/24 13:01:26;;;;;;;8.10;2.95;;;;;;;19.97;49.08;100473.40;1575306;90;21253;-58
2023/04/24 13:04:35;;;;;;;8.90;2.92;;;;;;;19.86;48.85;100485.30;1582614;89;21675;-59
2023/04/24 13:07:42;;;;;;;11.55;3.45;;;;;;;19.69;48.66;100491.19;1548720;91;21291;-58
2023/04/24 13:10:49;;;;;;;17.60;4.05;;;;;;;19.49;48.59;100491.41;1548953;92;21312;-57
2023/04/24 13:13:55;;;;;;;11.43;3.50;;;;;;;19.19;48.51;100496.84;1548215;92;21920;-58
2023/04/24 13:17:01;;;;;;;9.40;3.10;;;;;;;18.92;48.64;100492.62;1548800;92;21283;-58
2023/04/24 13:20:06;;;;;;;5.85;2.40;;;;;;;18.67;48.63;100484.84;1562179;89;21247;-58
2023/04/24 13:23:15;;;;;;;10.05;3.85;;;;;;;18.42;48.68;100481.72;1583952;88;21330;-58
2023/04/24 13:26:21;;;;;;;15.60;7.67;;;;;;;18.20;48.79;100480.34;1571824;91;21327;-58
2023/04/24 13:29:27;;;;;;;10.48;4.28;;;;;;;17.98;48.92;100470.68;1592676;88;21572;-59
2023/04/24 13:32:35;;;;;;;11.15;3.60;;;;;;;17.82;48.96;100472.88;1593767;89;22211;-59
2023/04/24 13:35:40;;;;;;;8.80;3.10;;;;;;;17.71;49.11;100465.81;1594475;90;21828;-59
2023/04/24 13:38:46;;;;;;;8.95;3.92;;;;;;;17.75;49.31;100462.38;1593585;89;21312;-59
2023/04/24 13:41:54;;;;;;;14.70;6.42;;;;;;;17.89;49.45;100457.08;1593386;88;21328;-61
2023/04/24 13:45:01;;;;;;;8.63;4.28;;;;;;;18.20;49.53;100456.27;1593360;88;21303;-61
2023/04/24 13:48:09;;;;;;;9.73;5.50;;;;;;;18.56;49.50;100456.45;1592142;88;21291;-60
2023/04/24 13:51:15;;;;;;;14.60;5.20;;;;;;;18.88;49.42;100447.00;1601992;84;21692;-65
2023/04/24 13:54:22;;;;;;;8.03;2.90;;;;;;;19.19;49.39;100445.48;1590492;89;21248;-60
2023/04/24 13:57:28;;;;;;;4.53;2.17;;;;;;;19.54;49.36;100440.73;1617194;86;21232;-63
2023/04/24 14:00:27;;;;;;;4.92;1.87;;;;;;;19.86;49.21;100447.27;1615358;87;21839;-62
2023/04/24 14:03:21;;;;;;;6.92;1.30;;;;;;;20.30;49.11;100444.61;1572369;89;21891;-62
2023/04/24 14:06:26;;;;;;;4.08;1.60;;;;;;;20.75;48.67;100443.88;1606164;87;21308;-66
2023/04/24 14:09:32;;;;;;;2.55;1.30;;;;;;;21.03;48.46;100448.75;1627589;86;21280;-62
2023/04/24 14:12:39;;;;;;;5.72;1.40;;;;;;;21.59;48.10;100448.09;1624191;88;21845;-60
2023/04/24 14:15:46;;;;;;;2.25;1.30;;;;;;;21.90;47.31;100457.41;1618933;88;21241;-59
2023/04/24 14:18:53;;;;;;;3.83;1.50;;;;;;;21.50;47.01;100456.53;1632205;87;21210;-61
2023/04/24 14:21:59;;;;;;;3.10;1.30;;;;;;;20.80;46.87;100460.68;1608825;88;21864;-66
2023/04/24 14:25:06;;;;;;;2.42;1.60;;;;;;;20.17;46.98;100461.52;1619786;88;21224;-65
2023/04/24 14:28:15;;;;;;;7.10;1.90;;;;;;;19.67;47.10;100465.57;1619915;88;21316;-64